sensor_id;sensor_type;location;lat;lon;timestamp;pressure;altitude;pressure_sealevel;temperature;humidity
80335;BME280;69653;52.674;13.574;2023-12-20T00:01:36;100042.47;;;5.80;100.00
80335;BME280;69653;52.674;13.574;2023-12-20T00:04:02;100049.22;;;5.82;100.00
80335;BME280;69653;52.674;13.574;2023-12-20T00:06:27;100027.25;;;5.79;100.00
80335;BME280;69653;52.674;13.574;2023-12-20T00:08:53;100038.94;;;5.79;100.00
80335;BME280;69653;52.674;13.574;2023-12-20T00:11:18;100037.31;;;5.78;100.00
80335;BME280;69653;52.674;13.574;2023-12-20T00:13:44;100033.50;;;5.79;100.00
80335;BME280;69653;52.674;13.574;2023-12-20T00:16:09;100030.78;;;5.79;100.00
80335;BME280;69653;52.674;13.574;2023-12-20T00:18:34;100031.06;;;5.78;100.00
80335;BME280;69653;52.674;13.574;2023-12-20T00:20:59;100023.47;;;5.80;100.00
80335;BME280;69653;52.674;13.574;2023-12-20T00:23:25;100013.16;;;5.77;100.00
80335;BME280;69653;52.674;13.574;2023-12-20T00:25:50;100014.50;;;5.79;100.00
80335;BME280;69653;52.674;13.574;2023-12-20T00:28:15;100023.97;;;5.82;100.00
80335;BME280;69653;52.674;13.574;2023-12-20T00:30:41;100026.94;;;5.85;100.00
80335;BME280;69653;52.674;13.574;2023-12-20T00:33:06;100010.97;;;5.79;100.00
80335;BME280;69653;52.674;13.574;2023-12-20T00:35:31;100010.16;;;5.78;100.00
80335;BME280;69653;52.674;13.574;2023-12-20T00:37:58;100015.84;;;5.82;100.00
80335;BME280;69653;52.674;13.574;2023-12-20T00:40:23;100009.34;;;5.78;100.00
80335;BME280;69653;52.674;13.574;2023-12-20T00:42:49;100001.47;;;5.81;100.00
80335;BME280;69653;52.674;13.574;2023-12-20T00:45:14;100002.84;;;5.79;100.00
80335;BME280;69653;52.674;13.574;2023-12-20T00:47:40;100000.41;;;5.77;100.00
80335;BME280;69653;52.674;13.574;2023-12-20T00:50:06;99994.47;;;5.75;100.00
80335;BME280;69653;52.674;13.574;2023-12-20T00:52:31;99999.59;;;5.77;100.00
80335;BME280;69653;52.674;13.574;2023-12-20T00:54:56;100006.88;;;5.81;100.00
80335;BME280;69653;52.674;13.574;2023-12-20T00:57:22;100017.22;;;5.79;100.00
80335;BME280;69653;52.674;13.574;2023-12-20T00:59:47;100005.31;;;5.75;100.00
80335;BME280;69653;52.674;13.574;2023-12-20T01:02:12;100011.22;;;5.82;100.00
80335;BME280;69653;52.674;13.574;2023-12-20T01:04:38;99997.69;;;5.77;100.00
80335;BME280;69653;52.674;13.574;2023-12-20T01:07:03;99998.81;;;5.76;100.00
80335;BME280;69653;52.674;13.574;2023-12-20T01:09:28;100007.47;;;5.78;100.00
80335;BME280;69653;52.674;13.574;2023-12-20T01:11:54;100008.00;;;5.80;100.00
80335;BME280;69653;52.674;13.574;2023-12-20T01:14:19;100015.03;;;5.81;100.00
80335;BME280;69653;52.674;13.574;2023-12-20T01:16:44;100019.09;;;5.84;100.00
80335;BME280;69653;52.674;13.574;2023-12-20T01:19:10;100021.50;;;5.85;100.00
80335;BME280;69653;52.674;13.574;2023-12-20T01:21:35;100012.84;;;5.83;100.00
80335;BME280;69653;52.674;13.574;2023-12-20T01:24:00;99997.94;;;5.81;100.00
80335;BME280;69653;52.674;13.574;2023-12-20T01:26:26;100005.00;;;5.82;100.00
80335;BME280;69653;52.674;13.574;2023-12-20T01:28:51;100002.81;;;5.84;100.00
80335;BME280;69653;52.674;13.574;2023-12-20T01:31:16;100006.31;;;5.84;100.00
80335;BME280;69653;52.674;13.574;2023-12-20T01:33:42;100009.84;;;5.85;100.00
80335;BME280;69653;52.674;13.574;2023-12-20T01:36:07;100001.47;;;5.87;100.00
80335;BME280;69653;52.674;13.574;2023-12-20T01:38:32;100000.38;;;5.88;100.00
80335;BME280;69653;52.674;13.574;2023-12-20T01:40:58;99996.28;;;5.85;100.00
80335;BME280;69653;52.674;13.574;2023-12-20T01:43:24;100000.09;;;5.84;100.00
80335;BME280;69653;52.674;13.574;2023-12-20T01:45:49;99993.56;;;5.85;100.00
80335;BME280;69653;52.674;13.574;2023-12-20T01:48:15;99999.00;;;5.85;100.00
80335;BME280;69653;52.674;13.574;2023-12-20T01:50:41;99995.22;;;5.86;100.00
80335;BME280;69653;52.674;13.574;2023-12-20T01:53:09;100003.59;;;5.90;100.00
80335;BME280;69653;52.674;13.574;2023-12-20T01:55:38;100001.72;;;5.90;100.00
80335;BME280;69653;52.674;13.574;2023-12-20T01:58:05;99996.28;;;5.85;100.00
80335;BME280;69653;52.674;13.574;2023-12-20T02:00:30;100001.97;;;5.89;100.00
80335;BME280;69653;52.674;13.574;2023-12-20T02:02:57;99999.00;;;5.85;100.00
80335;BME280;69653;52.674;13.574;2023-12-20T02:05:25;99999.81;;;5.85;100.00
80335;BME280;69653;52.674;13.574;2023-12-20T02:07:53;100011.75;;;5.90;100.00
80335;BME280;69653;52.674;13.574;2023-12-20T02:10:18;100000.66;;;5.86;100.00
80335;BME280;69653;52.674;13.574;2023-12-20T02:12:43;99990.34;;;5.83;100.00
80335;BME280;69653;52.674;13.574;2023-12-20T02:15:09;99999.28;;;5.83;100.00
80335;BME280;69653;52.674;13.574;2023-12-20T02:17:35;99994.13;;;5.82;100.00
80335;BME280;69653;52.674;13.574;2023-12-20T02:20:01;99987.66;;;5.78;100.00
80335;BME280;69653;52.674;13.574;2023-12-20T02:22:26;99998.50;;;5.78;100.00
80335;BME280;69653;52.674;13.574;2023-12-20T02:24:52;100002.59;;;5.75;100.00
80335;BME280;69653;52.674;13.574;2023-12-20T02:27:18;99998.25;;;5.74;100.00
80335;BME280;69653;52.674;13.574;2023-12-20T02:29:46;99993.41;;;5.71;100.00
80335;BME280;69653;52.674;13.574;2023-12-20T02:32:12;99987.97;;;5.71;100.00
80335;BME280;69653;52.674;13.574;2023-12-20T02:34:37;100005.34;;;5.70;100.00
80335;BME280;69653;52.674;13.574;2023-12-20T02:37:03;99995.88;;;5.68;100.00
80335;BME280;69653;52.674;13.574;2023-12-20T02:39:28;99998.34;;;5.64;100.00
80335;BME280;69653;52.674;13.574;2023-12-20T02:41:53;100001.63;;;5.61;100.00
80335;BME280;69653;52.674;13.574;2023-12-20T02:44:19;100004.09;;;5.58;100.00
80335;BME280;69653;52.674;13.574;2023-12-20T02:46:44;99998.41;;;5.54;100.00
80335;BME280;69653;52.674;13.574;2023-12-20T02:49:09;99993.78;;;5.55;100.00
80335;BME280;69653;52.674;13.574;2023-12-20T02:51:35;99985.69;;;5.50;100.00
80335;BME280;69653;52.674;13.574;2023-12-20T02:54:03;99980.84;;;5.47;100.00
80335;BME280;69653;52.674;13.574;2023-12-20T02:56:28;99997.34;;;5.50;100.00
80335;BME280;69653;52.674;13.574;2023-12-20T02:58:53;99991.44;;;5.43;100.00
80335;BME280;69653;52.674;13.574;2023-12-20T03:01:19;99991.69;;;5.47;100.00
80335;BME280;69653;52.674;13.574;2023-12-20T03:03:44;100003.31;;;5.47;100.00
80335;BME280;69653;52.674;13.574;2023-12-20T03:06:10;99998.75;;;5.43;100.00
80335;BME280;69653;52.674;13.574;2023-12-20T03:08:35;99995.78;;;5.39;100.00
80335;BME280;69653;52.674;13.574;2023-12-20T03:11:00;99997.94;;;5.42;100.00
80335;BME280;69653;52.674;13.574;2023-12-20T03:13:26;99989.56;;;5.38;100.00
80335;BME280;69653;52.674;13.574;2023-12-20T03:15:51;99996.84;;;5.43;100.00
80335;BME280;69653;52.674;13.574;2023-12-20T03:18:16;99996.28;;;5.46;100.00
80335;BME280;69653;52.674;13.574;2023-12-20T03:20:43;99993.03;;;5.44;100.00
80335;BME280;69653;52.674;13.574;2023-12-20T03:23:08;99996.59;;;5.40;100.00
80335;BME280;69653;52.674;13.574;2023-12-20T03:25:33;100000.09;;;5.40;100.00
80335;BME280;69653;52.674;13.574;2023-12-20T03:28:00;100013.41;;;5.36;100.00
80335;BME280;69653;52.674;13.574;2023-12-20T03:30:25;100005.81;;;5.38;100.00
80335;BME280;69653;52.674;13.574;2023-12-20T03:32:51;100002.28;;;5.38;100.00
80335;BME280;69653;52.674;13.574;2023-12-20T03:35:16;100001.47;;;5.37;100.00
80335;BME280;69653;52.674;13.574;2023-12-20T03:37:42;100003.13;;;5.33;100.00
80335;BME280;69653;52.674;13.574;2023-12-20T03:40:07;100000.41;;;5.33;100.00
80335;BME280;69653;52.674;13.574;2023-12-20T03:42:33;99990.69;;;5.27;100.00
80335;BME280;69653;52.674;13.574;2023-12-20T03:44:58;99991.25;;;5.24;100.00
80335;BME280;69653;52.674;13.574;2023-12-20T03:47:23;99997.22;;;5.21;100.00
80335;BME280;69653;52.674;13.574;2023-12-20T03:49:48;99979.63;;;5.19;100.00
80335;BME280;69653;52.674;13.574;2023-12-20T03:52:14;99981.28;;;5.15;100.00
80335;BME280;69653;52.674;13.574;2023-12-20T03:54:40;99977.47;;;5.16;100.00
80335;BME280;69653;52.674;13.574;2023-12-20T03:57:07;99982.34;;;5.14;100.00
80335;BME280;69653;52.674;13.574;2023-12-20T03:59:37;99992.16;;;5.10;100.00
80335;BME280;69653;52.674;13.574;2023-12-20T04:02:03;99988.13;;;5.02;100.00
80335;BME280;69653;52.674;13.574;2023-12-20T04:04:28;99991.63;;;5.03;100.00
80335;BME280;69653;52.674;13.574;2023-12-20T04:06:54;99981.88;;;5.02;100.00
80335;BME280;69653;52.674;13.574;2023-12-20T04:09:19;99970.56;;;4.89;100.00
80335;BME280;69653;52.674;13.574;2023-12-20T04:11:44;99970.56;;;4.89;100.00
80335;BME280;69653;52.674;13.574;2023-12-20T04:14:10;99967.59;;;4.86;100.00
80335;BME280;69653;52.674;13.574;2023-12-20T04:16:35;99958.66;;;4.80;100.00
80335;BME280;69653;52.674;13.574;2023-12-20T04:19:00;99953.28;;;4.75;100.00
80335;BME280;69653;52.674;13.574;2023-12-20T04:21:26;99962.22;;;4.71;100.00
80335;BME280;69653;52.674;13.574;2023-12-20T04:23:51;99971.13;;;4.76;100.00
80335;BME280;69653;52.674;13.574;2023-12-20T04:26:16;99981.97;;;4.76;100.00
80335;BME280;69653;52.674;13.574;2023-12-20T04:28:42;99972.50;;;4.74;100.00
80335;BME280;69653;52.674;13.574;2023-12-20T04:31:08;99962.53;;;4.64;100.00
80335;BME280;69653;52.674;13.574;2023-12-20T04:33:33;99964.41;;;4.69;100.00
80335;BME280;69653;52.674;13.574;2023-12-20T04:35:59;99954.13;;;4.66;100.00
80335;BME280;69653;52.674;13.574;2023-12-20T04:38:25;99958.47;;;4.62;100.00
80335;BME280;69653;52.674;13.574;2023-12-20T04:40:50;99959.56;;;4.56;100.00
80335;BME280;69653;52.674;13.574;2023-12-20T04:43:16;99955.53;;;4.53;100.00
80335;BME280;69653;52.674;13.574;2023-12-20T04:45:41;99961.75;;;4.49;100.00
80335;BME280;69653;52.674;13.574;2023-12-20T04:48:06;99964.22;;;4.50;100.00
80335;BME280;69653;52.674;13.574;2023-12-20T04:50:31;99960.13;;;4.48;100.00
80335;BME280;69653;52.674;13.574;2023-12-20T04:52:58;99961.50;;;4.50;100.00
80335;BME280;69653;52.674;13.574;2023-12-20T04:55:23;99955.78;;;4.52;100.00
80335;BME280;69653;52.674;13.574;2023-12-20T04:57:49;99956.34;;;4.54;100.00
80335;BME280;69653;52.674;13.574;2023-12-20T05:00:14;99945.78;;;4.52;100.00
80335;BME280;69653;52.674;13.574;2023-12-20T05:02:41;99959.84;;;4.54;100.00
80335;BME280;69653;52.674;13.574;2023-12-20T05:05:06;99949.56;;;4.56;100.00
80335;BME280;69653;52.674;13.574;2023-12-20T05:07:32;99949.56;;;4.56;100.00
80335;BME280;69653;52.674;13.574;2023-12-20T05:09:58;99949.56;;;4.56;100.00
80335;BME280;69653;52.674;13.574;2023-12-20T05:12:23;99941.97;;;4.58;100.00
80335;BME280;69653;52.674;13.574;2023-12-20T05:14:49;99947.63;;;4.62;100.00
80335;BME280;69653;52.674;13.574;2023-12-20T05:17:14;99948.19;;;4.59;100.00
80335;BME280;69653;52.674;13.574;2023-12-20T05:19:39;99961.72;;;4.64;100.00
80335;BME280;69653;52.674;13.574;2023-12-20T05:22:04;99967.38;;;4.67;100.00
80335;BME280;69653;52.674;13.574;2023-12-20T05:24:30;99959.28;;;4.62;100.00
80335;BME280;69653;52.674;13.574;2023-12-20T05:26:55;99959.28;;;4.62;100.00
80335;BME280;69653;52.674;13.574;2023-12-20T05:29:20;99960.91;;;4.63;100.00
80335;BME280;69653;52.674;13.574;2023-12-20T05:31:46;99954.16;;;4.61;100.00
80335;BME280;69653;52.674;13.574;2023-12-20T05:34:11;99966.31;;;4.58;100.00
80335;BME280;69653;52.674;13.574;2023-12-20T05:36:37;99957.97;;;4.50;100.00
80335;BME280;69653;52.674;13.574;2023-12-20T05:39:02;99960.44;;;4.46;100.00
80335;BME280;69653;52.674;13.574;2023-12-20T05:41:33;99954.19;;;4.35;100.00
80335;BME280;69653;52.674;13.574;2023-12-20T05:43:58;99954.22;;;4.30;100.00
80335;BME280;69653;52.674;13.574;2023-12-20T05:46:24;99958.56;;;4.21;100.00
80335;BME280;69653;52.674;13.574;2023-12-20T05:48:49;99956.69;;;4.17;100.00
80335;BME280;69653;52.674;13.574;2023-12-20T05:51:14;99943.72;;;4.09;100.00
80335;BME280;69653;52.674;13.574;2023-12-20T05:53:40;99938.84;;;4.01;100.00
80335;BME280;69653;52.674;13.574;2023-12-20T05:56:05;99932.38;;;3.97;100.00
80335;BME280;69653;52.674;13.574;2023-12-20T05:58:32;99932.91;;;3.88;100.00
80335;BME280;69653;52.674;13.574;2023-12-20T06:00:57;99928.31;;;3.84;100.00
80335;BME280;69653;52.674;13.574;2023-12-20T06:03:23;99908.88;;;3.72;100.00
80335;BME280;69653;52.674;13.574;2023-12-20T06:05:48;99938.84;;;3.80;100.00
80335;BME280;69653;52.674;13.574;2023-12-20T06:08:14;99931.31;;;3.82;100.00
80335;BME280;69653;52.674;13.574;2023-12-20T06:10:39;99940.22;;;3.88;100.00
80335;BME280;69653;52.674;13.574;2023-12-20T06:13:05;99924.28;;;3.86;100.00
80335;BME280;69653;52.674;13.574;2023-12-20T06:15:32;99925.34;;;3.90;100.00
80335;BME280;69653;52.674;13.574;2023-12-20T06:17:57;99925.88;;;3.92;100.00
80335;BME280;69653;52.674;13.574;2023-12-20T06:20:22;99926.97;;;3.91;100.00
80335;BME280;69653;52.674;13.574;2023-12-20T06:22:47;99915.06;;;3.98;100.00
80335;BME280;69653;52.674;13.574;2023-12-20T06:25:13;99919.94;;;3.90;100.00
80335;BME280;69653;52.674;13.574;2023-12-20T06:27:38;99918.88;;;3.86;100.00
80335;BME280;69653;52.674;13.574;2023-12-20T06:30:04;99922.66;;;3.85;100.00
80335;BME280;69653;52.674;13.574;2023-12-20T06:32:29;99921.03;;;3.79;100.00
80335;BME280;69653;52.674;13.574;2023-12-20T06:34:55;99919.41;;;3.78;100.00
80335;BME280;69653;52.674;13.574;2023-12-20T06:37:20;99916.16;;;3.76;100.00
80335;BME280;69653;52.674;13.574;2023-12-20T06:39:46;99919.97;;;3.75;100.00
80335;BME280;69653;52.674;13.574;2023-12-20T06:42:12;99924.25;;;3.81;100.00
80335;BME280;69653;52.674;13.574;2023-12-20T06:44:38;99924.25;;;3.81;100.00
80335;BME280;69653;52.674;13.574;2023-12-20T06:47:04;99919.94;;;3.85;100.00
80335;BME280;69653;52.674;13.574;2023-12-20T06:49:29;99913.97;;;3.83;100.00
80335;BME280;69653;52.674;13.574;2023-12-20T06:51:54;99908.56;;;3.83;100.00
80335;BME280;69653;52.674;13.574;2023-12-20T06:54:20;99908.59;;;3.78;100.00
80335;BME280;69653;52.674;13.574;2023-12-20T06:56:45;99898.31;;;3.80;100.00
80335;BME280;69653;52.674;13.574;2023-12-20T06:59:10;99904.53;;;3.81;100.00
80335;BME280;69653;52.674;13.574;2023-12-20T07:01:36;99902.88;;;3.80;100.00
80335;BME280;69653;52.674;13.574;2023-12-20T07:04:03;99916.69;;;3.78;100.00
80335;BME280;69653;52.674;13.574;2023-12-20T07:06:28;99908.31;;;3.80;100.00
80335;BME280;69653;52.674;13.574;2023-12-20T07:08:53;99919.69;;;3.87;100.00
80335;BME280;69653;52.674;13.574;2023-12-20T07:11:19;99914.53;;;3.90;100.00
80335;BME280;69653;52.674;13.574;2023-12-20T07:13:44;99917.22;;;3.96;100.00
80335;BME280;69653;52.674;13.574;2023-12-20T07:16:09;99912.63;;;3.96;100.00
80335;BME280;69653;52.674;13.574;2023-12-20T07:18:35;99906.41;;;3.96;100.00
80335;BME280;69653;52.674;13.574;2023-12-20T07:21:00;99906.41;;;3.96;100.00
80335;BME280;69653;52.674;13.574;2023-12-20T07:23:25;99907.75;;;3.98;100.00
80335;BME280;69653;52.674;13.574;2023-12-20T07:25:51;99913.44;;;4.02;100.00
80335;BME280;69653;52.674;13.574;2023-12-20T07:28:17;99908.28;;;4.00;100.00
80335;BME280;69653;52.674;13.574;2023-12-20T07:30:42;99909.63;;;4.08;100.00
80335;BME280;69653;52.674;13.574;2023-12-20T07:33:07;99903.41;;;4.07;100.00
80335;BME280;69653;52.674;13.574;2023-12-20T07:35:34;99892.84;;;4.06;100.00
80335;BME280;69653;52.674;13.574;2023-12-20T07:38:00;99886.34;;;4.07;100.00
80335;BME280;69653;52.674;13.574;2023-12-20T07:40:25;99883.38;;;4.08;100.00
80335;BME280;69653;52.674;13.574;2023-12-20T07:42:50;99890.69;;;4.13;100.00
80335;BME280;69653;52.674;13.574;2023-12-20T07:45:15;99885.81;;;4.10;100.00
80335;BME280;69653;52.674;13.574;2023-12-20T07:47:41;99887.97;;;4.13;99.80
80335;BME280;69653;52.674;13.574;2023-12-20T07:50:06;99888.72;;;4.28;100.00
80335;BME280;69653;52.674;13.574;2023-12-20T07:52:31;99902.00;;;4.30;99.26
80335;BME280;69653;52.674;13.574;2023-12-20T07:54:57;99901.47;;;4.28;99.21
80335;BME280;69653;52.674;13.574;2023-12-20T07:57:23;99890.91;;;4.26;99.21
80335;BME280;69653;52.674;13.574;2023-12-20T07:59:48;99898.47;;;4.24;99.17
80335;BME280;69653;52.674;13.574;2023-12-20T08:02:14;99900.09;;;4.25;99.48
80335;BME280;69653;52.674;13.574;2023-12-20T08:04:39;99917.16;;;4.31;98.97
80335;BME280;69653;52.674;13.574;2023-12-20T08:07:06;99900.38;;;4.29;99.02
80335;BME280;69653;52.674;13.574;2023-12-20T08:09:31;99897.09;;;4.32;98.79
80335;BME280;69653;52.674;13.574;2023-12-20T08:11:57;99893.88;;;4.30;99.82
80335;BME280;69653;52.674;13.574;2023-12-20T08:14:24;99903.59;;;4.36;98.28
80335;BME280;69653;52.674;13.574;2023-12-20T08:16:49;99891.69;;;4.42;98.45
80335;BME280;69653;52.674;13.574;2023-12-20T08:19:15;99906.28;;;4.46;98.02
80335;BME280;69653;52.674;13.574;2023-12-20T08:21:40;99900.31;;;4.44;97.75
80335;BME280;69653;52.674;13.574;2023-12-20T08:24:06;99898.69;;;4.48;98.44
80335;BME280;69653;52.674;13.574;2023-12-20T08:26:32;99889.47;;;4.49;97.41
80335;BME280;69653;52.674;13.574;2023-12-20T08:28:57;99899.75;;;4.47;97.41
80335;BME280;69653;52.674;13.574;2023-12-20T08:31:23;99906.53;;;4.50;96.98
80335;BME280;69653;52.674;13.574;2023-12-20T08:33:48;99901.91;;;4.55;96.83
80335;BME280;69653;52.674;13.574;2023-12-20T08:36:14;99897.03;;;4.52;97.11
80335;BME280;69653;52.674;13.574;2023-12-20T08:38:40;99900.28;;;4.54;96.07
80335;BME280;69653;52.674;13.574;2023-12-20T08:41:06;99884.59;;;4.51;96.19
80335;BME280;69653;52.674;13.574;2023-12-20T08:43:31;99880.53;;;4.49;96.46
80335;BME280;69653;52.674;13.574;2023-12-20T08:45:57;99886.22;;;4.52;97.08
80335;BME280;69653;52.674;13.574;2023-12-20T08:48:22;99880.00;;;4.52;96.83
80335;BME280;69653;52.674;13.574;2023-12-20T08:50:48;99881.31;;;4.54;96.40
80335;BME280;69653;52.674;13.574;2023-12-20T08:53:15;99878.34;;;4.56;96.75
80335;BME280;69653;52.674;13.574;2023-12-20T08:55:41;99873.44;;;4.63;96.48
80335;BME280;69653;52.674;13.574;2023-12-20T08:58:07;99877.75;;;4.69;95.95
80335;BME280;69653;52.674;13.574;2023-12-20T09:00:33;99878.78;;;4.73;95.39
80335;BME280;69653;52.674;13.574;2023-12-20T09:02:59;99871.22;;;4.75;95.90
80335;BME280;69653;52.674;13.574;2023-12-20T09:05:24;99867.19;;;4.72;95.63
80335;BME280;69653;52.674;13.574;2023-12-20T09:07:50;99880.97;;;4.76;95.31
80335;BME280;69653;52.674;13.574;2023-12-20T09:10:15;99878.78;;;4.73;95.77
80335;BME280;69653;52.674;13.574;2023-12-20T09:12:40;99874.75;;;4.75;95.72
80335;BME280;69653;52.674;13.574;2023-12-20T09:15:08;99875.56;;;4.76;95.39
80335;BME280;69653;52.674;13.574;2023-12-20T09:17:33;99877.94;;;4.82;94.43
80335;BME280;69653;52.674;13.574;2023-12-20T09:19:58;99880.66;;;4.87;93.83
80335;BME280;69653;52.674;13.574;2023-12-20T09:22:25;99888.47;;;4.89;93.17
80335;BME280;69653;52.674;13.574;2023-12-20T09:24:50;99889.84;;;4.86;93.00
80335;BME280;69653;52.674;13.574;2023-12-20T09:27:15;99880.38;;;4.84;93.80
80335;BME280;69653;52.674;13.574;2023-12-20T09:29:41;99872.25;;;4.84;93.36
80335;BME280;69653;52.674;13.574;2023-12-20T09:32:06;99871.44;;;4.83;92.86
80335;BME280;69653;52.674;13.574;2023-12-20T09:34:31;99853.28;;;4.84;93.49
80335;BME280;69653;52.674;13.574;2023-12-20T09:36:57;99860.63;;;4.83;94.82
80335;BME280;69653;52.674;13.574;2023-12-20T09:39:22;99840.53;;;4.84;94.39
80335;BME280;69653;52.674;13.574;2023-12-20T09:42:02;99847.31;;;4.87;94.03
80335;BME280;69653;52.674;13.574;2023-12-20T09:44:28;99855.16;;;4.88;94.95
80335;BME280;69653;52.674;13.574;2023-12-20T09:46:55;99860.63;;;4.83;94.25
80335;BME280;69653;52.674;13.574;2023-12-20T09:49:21;99847.59;;;4.85;94.87
80335;BME280;69653;52.674;13.574;2023-12-20T09:51:47;99847.06;;;4.83;94.48
80335;BME280;69653;52.674;13.574;2023-12-20T09:54:16;99844.06;;;4.85;95.28
80335;BME280;69653;52.674;13.574;2023-12-20T09:56:41;99848.41;;;4.86;94.50
80335;BME280;69653;52.674;13.574;2023-12-20T09:59:07;99843.00;;;4.86;94.92
80335;BME280;69653;52.674;13.574;2023-12-20T10:01:33;99833.72;;;4.92;93.97
80335;BME280;69653;52.674;13.574;2023-12-20T10:04:00;99840.75;;;4.98;93.51
80335;BME280;69653;52.674;13.574;2023-12-20T10:06:25;99829.91;;;4.98;92.34
80335;BME280;69653;52.674;13.574;2023-12-20T10:08:51;99812.59;;;4.94;92.95
80335;BME280;69653;52.674;13.574;2023-12-20T10:11:17;99818.22;;;5.03;93.13
80335;BME280;69653;52.674;13.574;2023-12-20T10:13:47;99816.03;;;5.05;92.63
80335;BME280;69653;52.674;13.574;2023-12-20T10:16:13;99817.13;;;5.04;93.61
80335;BME280;69653;52.674;13.574;2023-12-20T10:18:38;99800.66;;;4.95;94.31
80335;BME280;69653;52.674;13.574;2023-12-20T10:21:04;99800.19;;;5.22;94.63
80335;BME280;69653;52.674;13.574;2023-12-20T10:23:30;99785.91;;;5.40;93.25
80335;BME280;69653;52.674;13.574;2023-12-20T10:25:57;99791.75;;;5.57;93.13
80335;BME280;69653;52.674;13.574;2023-12-20T10:28:23;99787.38;;;5.61;92.51
80335;BME280;69653;52.674;13.574;2023-12-20T10:30:52;99781.47;;;5.54;91.75
80335;BME280;69653;52.674;13.574;2023-12-20T10:33:28;99782.69;;;5.38;92.03
80335;BME280;69653;52.674;13.574;2023-12-20T10:35:55;99778.19;;;5.28;91.65
80335;BME280;69653;52.674;13.574;2023-12-20T10:38:20;99783.84;;;5.32;91.64
80335;BME280;69653;52.674;13.574;2023-12-20T10:40:46;99774.69;;;5.23;91.58
80335;BME280;69653;52.674;13.574;2023-12-20T10:43:12;99770.91;;;5.24;91.12
80335;BME280;69653;52.674;13.574;2023-12-20T10:45:37;99763.00;;;5.27;91.01
80335;BME280;69653;52.674;13.574;2023-12-20T10:48:03;99747.50;;;5.33;91.59
80335;BME280;69653;52.674;13.574;2023-12-20T10:50:29;99747.19;;;5.40;90.81
80335;BME280;69653;52.674;13.574;2023-12-20T10:52:56;99749.59;;;5.41;90.60
80335;BME280;69653;52.674;13.574;2023-12-20T10:55:25;99750.63;;;5.45;90.63
80335;BME280;69653;52.674;13.574;2023-12-20T10:57:51;99745.78;;;5.42;90.72
80335;BME280;69653;52.674;13.574;2023-12-20T11:00:18;99744.22;;;5.36;90.15
80335;BME280;69653;52.674;13.574;2023-12-20T11:02:44;99743.97;;;5.32;91.72
80335;BME280;69653;52.674;13.574;2023-12-20T11:05:31;99742.13;;;5.28;92.78
80335;BME280;69653;52.674;13.574;2023-12-20T11:08:04;99738.16;;;5.20;91.76
80335;BME280;69653;52.674;13.574;2023-12-20T11:10:40;99719.97;;;5.21;92.21
80335;BME280;69653;52.674;13.574;2023-12-20T11:16:20;99717.28;;;5.21;90.57
80335;BME280;69653;52.674;13.574;2023-12-20T11:18:46;99705.91;;;5.19;91.42
80335;BME280;69653;52.674;13.574;2023-12-20T11:21:11;99698.00;;;5.22;90.46
80335;BME280;69653;52.674;13.574;2023-12-20T11:23:37;99697.66;;;5.29;91.27
80335;BME280;69653;52.674;13.574;2023-12-20T11:26:02;99689.00;;;5.27;90.81
80335;BME280;69653;52.674;13.574;2023-12-20T11:28:28;99680.88;;;5.27;90.35
80335;BME280;69653;52.674;13.574;2023-12-20T11:30:58;99686.06;;;5.23;90.60
80335;BME280;69653;52.674;13.574;2023-12-20T11:33:29;99683.06;;;5.25;91.10
80335;BME280;69653;52.674;13.574;2023-12-20T11:35:55;99665.19;;;5.24;91.61
80335;BME280;69653;52.674;13.574;2023-12-20T11:38:21;99674.06;;;5.29;91.65
80335;BME280;69653;52.674;13.574;2023-12-20T11:40:50;99660.59;;;5.24;91.98
80335;BME280;69653;52.674;13.574;2023-12-20T11:46:07;99652.28;;;5.16;92.89
80335;BME280;69653;52.674;13.574;2023-12-20T11:48:35;99635.47;;;5.14;92.42
80335;BME280;69653;52.674;13.574;2023-12-20T11:51:01;99632.25;;;5.12;92.79
80335;BME280;69653;52.674;13.574;2023-12-20T11:53:26;99626.84;;;5.12;93.34
80335;BME280;69653;52.674;13.574;2023-12-20T11:55:51;99629.50;;;5.17;93.26
80335;BME280;69653;52.674;13.574;2023-12-20T11:58:16;99620.38;;;5.08;93.11
80335;BME280;69653;52.674;13.574;2023-12-20T12:00:42;99607.38;;;5.10;93.54
80335;BME280;69653;52.674;13.574;2023-12-20T12:03:08;99604.00;;;5.18;93.61
80335;BME280;69653;52.674;13.574;2023-12-20T12:05:33;99601.00;;;5.19;93.74
80335;BME280;69653;52.674;13.574;2023-12-20T12:07:59;99592.06;;;5.19;93.57
80335;BME280;69653;52.674;13.574;2023-12-20T12:10:24;99583.72;;;5.15;93.22
80335;BME280;69653;52.674;13.574;2023-12-20T12:12:50;99577.47;;;5.15;93.48
80335;BME280;69653;52.674;13.574;2023-12-20T12:15:15;99570.44;;;5.14;93.73
80335;BME280;69653;52.674;13.574;2023-12-20T12:17:41;99566.88;;;5.18;92.51
80335;BME280;69653;52.674;13.574;2023-12-20T12:20:06;99562.50;;;5.22;92.41
80335;BME280;69653;52.674;13.574;2023-12-20T12:22:32;99570.94;;;5.21;92.07
80335;BME280;69653;52.674;13.574;2023-12-20T12:24:59;99561.69;;;5.22;92.66
80335;BME280;69653;52.674;13.574;2023-12-20T12:27:27;99563.44;;;5.13;93.65
80335;BME280;69653;52.674;13.574;2023-12-20T12:30:03;99553.69;;;5.12;95.16
80335;BME280;69653;52.674;13.574;2023-12-20T12:32:29;99545.59;;;5.07;95.73
80335;BME280;69653;52.674;13.574;2023-12-20T12:34:54;99535.41;;;4.99;96.38
80335;BME280;69653;52.674;13.574;2023-12-20T12:37:19;99552.81;;;4.93;96.23
80335;BME280;69653;52.674;13.574;2023-12-20T12:39:46;99548.25;;;4.88;97.60
80335;BME280;69653;52.674;13.574;2023-12-20T12:42:11;99543.94;;;4.87;97.66
80335;BME280;69653;52.674;13.574;2023-12-20T12:44:37;99544.50;;;4.84;97.16
80335;BME280;69653;52.674;13.574;2023-12-20T12:47:02;99549.06;;;4.88;97.82
80335;BME280;69653;52.674;13.574;2023-12-20T12:49:28;99528.00;;;4.80;98.80
80335;BME280;69653;52.674;13.574;2023-12-20T12:51:53;99522.91;;;4.79;98.09